Time;durP1;ratioP1;P1;durP2;ratioP2;P2;SDS_P1;SDS_P2;PMS_P1;PMS_P2;Temp;Humidity;BMP_temperature;BMP_pressure;BME280_temperature;BME280_humidity;BME280_pressure;Samples;Min_cycle;Max_cycle;Signal;HPM_P1;HPM_P2
2021/09/15 00:01:52;;;;;;;;;;;17.40;99.90;;;;;;5090508;28;20270;-72
2021/09/15 00:04:17;;;;;;;;;;;17.40;99.90;;;;;;5094793;28;19912;-71
2021/09/15 00:06:43;;;;;;;;;;;17.40;99.90;;;;;;5072465;28;19998;-72
2021/09/15 00:09:08;;;;;;;;;;;17.40;99.90;;;;;;5089712;28;19912;-72
2021/09/15 00:11:34;;;;;;;;;;;17.40;99.90;;;;;;5089874;28;19959;-72
2021/09/15 00:14:00;;;;;;;;;;;17.40;99.90;;;;;;5090218;28;19931;-72
2021/09/15 00:16:26;;;;;;;;;;;17.40;99.90;;;;;;5091421;28;20331;-72
2021/09/15 00:18:51;;;;;;;;;;;17.40;99.90;;;;;;5092019;28;20004;-72
2021/09/15 00:21:17;;;;;;;;;;;17.30;99.90;;;;;;5073879;28;20170;-72
2021/09/15 00:23:42;;;;;;;;;;;17.30;99.90;;;;;;5092742;28;19912;-72
2021/09/15 00:26:08;;;;;;;;;;;17.40;99.90;;;;;;5092375;28;19908;-70
2021/09/15 00:28:33;;;;;;;;;;;17.30;99.90;;;;;;5092691;28;19912;-72
2021/09/15 00:30:58;;;;;;;;;;;17.30;99.90;;;;;;5092547;28;20445;-72
2021/09/15 00:33:24;;;;;;;;;;;17.40;99.90;;;;;;5091252;28;19909;-71
2021/09/15 00:35:49;;;;;;;;;;;17.30;99.90;;;;;;5092379;28;20269;-72
2021/09/15 00:38:15;;;;;;;;;;;17.30;99.90;;;;;;5092058;28;19923;-72
2021/09/15 00:40:40;;;;;;;;;;;17.30;99.90;;;;;;5092468;28;19908;-72
2021/09/15 00:43:06;;;;;;;;;;;17.40;99.90;;;;;;5092350;28;19908;-72
2021/09/15 00:45:31;;;;;;;;;;;17.40;99.90;;;;;;5092831;28;20021;-72
2021/09/15 00:47:57;;;;;;;;;;;17.40;99.90;;;;;;5112119;28;19964;-72
2021/09/15 00:50:22;;;;;;;;;;;17.40;99.90;;;;;;5112581;28;19908;-71
2021/09/15 00:52:48;;;;;;;;;;;17.30;99.90;;;;;;5112458;28;19995;-72
2021/09/15 00:55:14;;;;;;;;;;;17.30;99.90;;;;;;5112554;28;19908;-72
2021/09/15 00:57:39;;;;;;;;;;;17.20;99.90;;;;;;5111975;28;19912;-72
2021/09/15 01:00:05;;;;;;;;;;;17.20;99.90;;;;;;5112420;28;19912;-72
2021/09/15 01:02:31;;;;;;;;;;;17.20;99.90;;;;;;5110203;28;20011;-70
2021/09/15 01:04:56;;;;;;;;;;;17.30;99.90;;;;;;5112216;28;19907;-71
2021/09/15 01:07:22;;;;;;;;;;;17.30;99.90;;;;;;5111859;28;19908;-72
2021/09/15 01:09:48;;;;;;;;;;;17.30;99.90;;;;;;5112429;28;19914;-72
2021/09/15 01:12:13;;;;;;;;;;;17.30;99.90;;;;;;5112246;28;19953;-72
2021/09/15 01:14:39;;;;;;;;;;;17.30;99.90;;;;;;5110920;28;19907;-72
2021/09/15 01:17:05;;;;;;;;;;;17.20;99.90;;;;;;5111623;28;19915;-70
2021/09/15 01:19:31;;;;;;;;;;;17.30;99.90;;;;;;5111799;28;19951;-72
2021/09/15 01:21:57;;;;;;;;;;;17.30;99.90;;;;;;5112036;28;20118;-72
2021/09/15 01:24:24;;;;;;;;;;;17.30;99.90;;;;;;5112195;28;19986;-72
2021/09/15 01:26:51;;;;;;;;;;;17.30;99.90;;;;;;5111641;28;19907;-70
2021/09/15 01:29:18;;;;;;;;;;;17.30;99.90;;;;;;5112023;28;19939;-72
2021/09/15 01:32:19;;;;;;;;;;;17.20;99.90;;;;;;5105344;28;20466;-72
2021/09/15 01:34:51;;;;;;;;;;;17.20;99.90;;;;;;5009172;28;19916;-72
2021/09/15 01:37:17;;;;;;;;;;;17.10;99.90;;;;;;5094719;28;19954;-72
2021/09/15 01:39:43;;;;;;;;;;;17.10;99.90;;;;;;5111872;28;19961;-72
2021/09/15 01:42:09;;;;;;;;;;;17.10;99.90;;;;;;5112307;28;19968;-71
2021/09/15 01:44:36;;;;;;;;;;;17.10;99.90;;;;;;5113342;28;19912;-72
2021/09/15 01:47:02;;;;;;;;;;;17.10;99.90;;;;;;5112419;28;19969;-72
2021/09/15 01:49:31;;;;;;;;;;;17.20;99.90;;;;;;5112053;28;19911;-72
2021/09/15 01:51:58;;;;;;;;;;;17.20;99.90;;;;;;5111711;28;19907;-72
2021/09/15 01:54:24;;;;;;;;;;;17.30;99.90;;;;;;5111724;28;20333;-72
2021/09/15 01:56:49;;;;;;;;;;;17.30;99.90;;;;;;5112319;28;19912;-72
2021/09/15 01:59:15;;;;;;;;;;;17.30;99.90;;;;;;5113010;28;19912;-72
2021/09/15 02:01:40;;;;;;;;;;;17.20;99.90;;;;;;5106864;28;19912;-70
2021/09/15 02:04:06;;;;;;;;;;;17.30;99.90;;;;;;5111836;28;19994;-72
2021/09/15 02:06:31;;;;;;;;;;;17.30;99.90;;;;;;5111460;28;20357;-72
2021/09/15 02:08:57;;;;;;;;;;;17.20;99.90;;;;;;5111753;28;19914;-72
2021/09/15 02:11:22;;;;;;;;;;;17.20;99.90;;;;;;5111638;28;19908;-70
2021/09/15 02:13:48;;;;;;;;;;;17.10;99.90;;;;;;5111843;28;19915;-72
2021/09/15 02:16:13;;;;;;;;;;;17.20;99.90;;;;;;5111675;28;19914;-72
2021/09/15 02:18:39;;;;;;;;;;;17.10;99.90;;;;;;5111601;28;19912;-72
2021/09/15 02:21:04;;;;;;;;;;;17.20;99.90;;;;;;5111630;28;19912;-72
2021/09/15 02:23:29;;;;;;;;;;;17.20;99.90;;;;;;5111524;28;19908;-72
2021/09/15 02:25:55;;;;;;;;;;;17.20;99.90;;;;;;5111636;28;20006;-72
2021/09/15 02:28:20;;;;;;;;;;;17.20;99.90;;;;;;5111367;28;19908;-71
2021/09/15 02:30:46;;;;;;;;;;;17.20;99.90;;;;;;5111582;28;20278;-72
2021/09/15 02:33:11;;;;;;;;;;;17.20;99.90;;;;;;5109514;28;19951;-72
2021/09/15 02:35:37;;;;;;;;;;;17.20;99.90;;;;;;5115313;28;20314;-71
2021/09/15 02:38:02;;;;;;;;;;;17.20;99.90;;;;;;5114957;28;19919;-72
2021/09/15 02:40:28;;;;;;;;;;;17.20;99.90;;;;;;5115579;28;19908;-72
2021/09/15 02:42:53;;;;;;;;;;;17.20;99.90;;;;;;5115509;28;19914;-72
2021/09/15 02:45:19;;;;;;;;;;;17.10;99.90;;;;;;5115417;28;20284;-72
2021/09/15 02:47:44;;;;;;;;;;;17.10;99.90;;;;;;5114847;28;19916;-72
2021/09/15 02:50:10;;;;;;;;;;;17.10;99.90;;;;;;5115074;28;19958;-72
2021/09/15 02:52:35;;;;;;;;;;;17.10;99.90;;;;;;5115051;28;19918;-70
2021/09/15 02:55:01;;;;;;;;;;;17.00;99.90;;;;;;5115113;28;19912;-72
2021/09/15 02:57:26;;;;;;;;;;;17.00;99.90;;;;;;5114648;28;19912;-72
2021/09/15 02:59:52;;;;;;;;;;;16.90;99.90;;;;;;5115071;28;19930;-72
2021/09/15 03:02:17;;;;;;;;;;;16.90;99.90;;;;;;5109803;28;19998;-72
2021/09/15 03:04:43;;;;;;;;;;;17.00;99.90;;;;;;5114708;28;19912;-72
2021/09/15 03:07:09;;;;;;;;;;;17.00;99.90;;;;;;5114539;28;20307;-71
2021/09/15 03:09:34;;;;;;;;;;;17.00;99.90;;;;;;5114583;28;19912;-72
2021/09/15 03:12:00;;;;;;;;;;;17.00;99.90;;;;;;5114817;28;19956;-72
2021/09/15 03:14:25;;;;;;;;;;;17.00;99.90;;;;;;5109704;28;20435;-72
2021/09/15 03:16:54;;;;;;;;;;;16.90;99.90;;;;;;5110110;28;20124;-72
2021/09/15 03:19:20;;;;;;;;;;;17.00;99.90;;;;;;5115059;28;19953;-72
2021/09/15 03:21:45;;;;;;;;;;;16.90;99.90;;;;;;5114455;28;20318;-71
2021/09/15 03:24:11;;;;;;;;;;;16.90;99.90;;;;;;5114612;28;19912;-72
2021/09/15 03:26:37;;;;;;;;;;;16.90;99.90;;;;;;5114157;28;19915;-72
2021/09/15 03:29:02;;;;;;;;;;;17.00;99.90;;;;;;5114446;28;19907;-72
2021/09/15 03:31:28;;;;;;;;;;;16.90;99.90;;;;;;5114663;28;19930;-72
2021/09/15 03:33:53;;;;;;;;;;;16.90;99.90;;;;;;5114646;28;19915;-72
2021/09/15 03:36:19;;;;;;;;;;;16.90;99.90;;;;;;5113927;28;19908;-72
2021/09/15 03:38:44;;;;;;;;;;;16.90;99.90;;;;;;5114139;28;19915;-69
2021/09/15 03:41:11;;;;;;;;;;;16.90;99.90;;;;;;5114271;28;20414;-72
2021/09/15 03:43:36;;;;;;;;;;;16.90;99.90;;;;;;5113737;28;19908;-72
2021/09/15 03:46:02;;;;;;;;;;;16.90;99.90;;;;;;5105639;28;20689;-72
2021/09/15 03:48:27;;;;;;;;;;;16.90;99.90;;;;;;5095579;28;19953;-72
2021/09/15 03:50:53;;;;;;;;;;;16.90;99.90;;;;;;5114046;28;19908;-72
2021/09/15 03:53:18;;;;;;;;;;;16.90;99.90;;;;;;5113834;28;19908;-72
2021/09/15 03:55:44;;;;;;;;;;;16.90;99.90;;;;;;5113888;28;19915;-72
2021/09/15 03:58:09;;;;;;;;;;;17.00;99.90;;;;;;5113561;28;19912;-72
2021/09/15 04:00:35;;;;;;;;;;;16.90;99.90;;;;;;5113792;28;20361;-72
2021/09/15 04:03:00;;;;;;;;;;;17.00;99.90;;;;;;5113769;28;19915;-72
2021/09/15 04:05:26;;;;;;;;;;;17.00;99.90;;;;;;5095398;28;20280;-72
2021/09/15 04:07:51;;;;;;;;;;;17.00;99.90;;;;;;5113152;28;20380;-72
2021/09/15 04:10:17;;;;;;;;;;;17.00;99.90;;;;;;5113662;28;19911;-69
2021/09/15 04:12:42;;;;;;;;;;;17.10;99.90;;;;;;5113512;28;20440;-72
2021/09/15 04:15:08;;;;;;;;;;;17.10;99.90;;;;;;5105791;28;19908;-72
2021/09/15 04:17:34;;;;;;;;;;;17.20;99.90;;;;;;5112821;28;19912;-72
2021/09/15 04:19:59;;;;;;;;;;;17.40;99.90;;;;;;5113431;28;19908;-70
2021/09/15 04:22:25;;;;;;;;;;;17.40;99.90;;;;;;5113216;28;19912;-72
2021/09/15 04:32:44;;;;;;;;;;;17.30;99.90;;;;;;5113820;28;19953;-72
2021/09/15 04:35:10;;;;;;;;;;;17.30;99.90;;;;;;5113181;28;19912;-71
2021/09/15 04:37:36;;;;;;;;;;;17.30;99.90;;;;;;5112685;28;20372;-72
2021/09/15 04:40:02;;;;;;;;;;;17.30;99.90;;;;;;5112991;28;19934;-72
2021/09/15 04:42:27;;;;;;;;;;;17.30;99.90;;;;;;5112892;28;20261;-72
2021/09/15 04:44:53;;;;;;;;;;;17.30;99.90;;;;;;5104950;28;20285;-72
2021/09/15 04:47:18;;;;;;;;;;;17.20;99.90;;;;;;5111895;28;19964;-72
2021/09/15 04:49:44;;;;;;;;;;;17.20;99.90;;;;;;5112834;28;19907;-72
2021/09/15 04:52:09;;;;;;;;;;;17.20;99.90;;;;;;5112584;28;19908;-72
2021/09/15 04:54:35;;;;;;;;;;;17.30;99.90;;;;;;5111914;28;20295;-72
2021/09/15 04:57:00;;;;;;;;;;;17.20;99.90;;;;;;5112290;28;19933;-69
2021/09/15 04:59:25;;;;;;;;;;;17.30;99.90;;;;;;5112707;28;20357;-71
2021/09/15 05:01:51;;;;;;;;;;;17.20;99.90;;;;;;5112371;28;19907;-71
2021/09/15 05:04:16;;;;;;;;;;;17.10;99.90;;;;;;5112700;28;19969;-71
2021/09/15 05:06:42;;;;;;;;;;;17.10;99.90;;;;;;5112229;28;20287;-72
2021/09/15 05:09:07;;;;;;;;;;;17.10;99.90;;;;;;5112790;28;19908;-72
2021/09/15 05:11:33;;;;;;;;;;;17.10;99.90;;;;;;5112380;28;20325;-71
2021/09/15 05:13:58;;;;;;;;;;;17.10;99.90;;;;;;5112461;28;20403;-71
2021/09/15 05:16:24;;;;;;;;;;;17.10;99.90;;;;;;5103656;28;20006;-72
2021/09/15 05:18:49;;;;;;;;;;;17.10;99.90;;;;;;5112088;28;19979;-71
2021/09/15 05:21:15;;;;;;;;;;;17.10;99.90;;;;;;5112315;28;19912;-71
2021/09/15 05:23:40;;;;;;;;;;;17.10;99.90;;;;;;5112569;28;19907;-72
2021/09/15 05:26:06;;;;;;;;;;;17.10;99.90;;;;;;5111821;28;19933;-70
2021/09/15 05:28:31;;;;;;;;;;;17.10;99.90;;;;;;5112145;28;20377;-70
2021/09/15 05:30:57;;;;;;;;;;;17.10;99.90;;;;;;5112019;28;20361;-70
2021/09/15 05:33:22;;;;;;;;;;;17.10;99.90;;;;;;5112117;28;19908;-71
2021/09/15 05:35:48;;;;;;;;;;;17.10;99.90;;;;;;5112022;28;20272;-71
2021/09/15 05:38:13;;;;;;;;;;;17.10;99.90;;;;;;5111573;28;19912;-70
2021/09/15 05:40:39;;;;;;;;;;;17.10;99.90;;;;;;5112028;28;19908;-71
2021/09/15 05:43:05;;;;;;;;;;;17.20;99.90;;;;;;5111919;28;20011;-71
2021/09/15 05:45:30;;;;;;;;;;;17.30;99.90;;;;;;5103607;28;19908;-71
2021/09/15 05:47:56;;;;;;;;;;;17.30;99.90;;;;;;5111180;28;19918;-71
2021/09/15 05:50:21;;;;;;;;;;;17.20;99.90;;;;;;5111869;28;19907;-71
2021/09/15 05:52:47;;;;;;;;;;;17.20;99.90;;;;;;5111700;28;19943;-71
2021/09/15 05:55:12;;;;;;;;;;;17.20;99.90;;;;;;5093572;28;20254;-71
2021/09/15 05:57:38;;;;;;;;;;;17.20;99.90;;;;;;5111746;28;19955;-69
2021/09/15 06:00:04;;;;;;;;;;;17.20;99.90;;;;;;5111774;28;19957;-71
2021/09/15 06:02:30;;;;;;;;;;;17.10;99.90;;;;;;5111712;28;19943;-70
2021/09/15 06:04:55;;;;;;;;;;;17.10;99.90;;;;;;5111762;28;20430;-74
2021/09/15 06:07:21;;;;;;;;;;;17.10;99.90;;;;;;5115201;28;19908;-71
2021/09/15 06:09:46;;;;;;;;;;;17.10;99.90;;;;;;5115940;28;19908;-69
2021/09/15 06:12:12;;;;;;;;;;;17.00;99.90;;;;;;5115869;28;20295;-71
2021/09/15 06:14:37;;;;;;;;;;;17.10;99.90;;;;;;5108786;28;19916;-71
2021/09/15 06:17:03;;;;;;;;;;;17.10;99.90;;;;;;5114014;28;19912;-71
2021/09/15 06:19:28;;;;;;;;;;;17.10;99.90;;;;;;5115703;28;20311;-69
2021/09/15 06:21:54;;;;;;;;;;;17.10;99.90;;;;;;5096435;28;19958;-71
2021/09/15 06:24:19;;;;;;;;;;;17.10;99.90;;;;;;5115589;28;19943;-71
2021/09/15 06:26:47;;;;;;;;;;;17.10;99.90;;;;;;5115240;28;19912;-71
2021/09/15 06:29:13;;;;;;;;;;;17.10;99.90;;;;;;5115597;28;19908;-71
2021/09/15 06:31:39;;;;;;;;;;;17.20;99.90;;;;;;5115262;28;19912;-71
2021/09/15 06:34:05;;;;;;;;;;;17.10;99.90;;;;;;5115560;28;19911;-71
2021/09/15 06:36:31;;;;;;;;;;;17.10;99.90;;;;;;5115087;28;19908;-69
2021/09/15 06:38:56;;;;;;;;;;;17.20;99.90;;;;;;5115388;28;19912;-71
2021/09/15 06:41:22;;;;;;;;;;;17.20;99.90;;;;;;5115382;28;19995;-71
2021/09/15 06:43:47;;;;;;;;;;;17.20;99.90;;;;;;5115375;28;20060;-71
2021/09/15 06:46:13;;;;;;;;;;;17.20;99.90;;;;;;5106130;28;19922;-71
2021/09/15 06:48:38;;;;;;;;;;;17.20;99.90;;;;;;5098675;28;20167;-71
2021/09/15 06:51:04;;;;;;;;;;;17.30;99.90;;;;;;5094510;28;19938;-71
2021/09/15 06:53:29;;;;;;;;;;;17.30;99.90;;;;;;5094811;28;19969;-69
2021/09/15 06:55:54;;;;;;;;;;;17.30;99.90;;;;;;5095150;28;20299;-71
2021/09/15 06:58:20;;;;;;;;;;;17.30;99.90;;;;;;5094373;28;19957;-71
2021/09/15 07:00:46;;;;;;;;;;;17.30;99.90;;;;;;5094486;28;19999;-71
2021/09/15 07:03:11;;;;;;;;;;;17.40;99.90;;;;;;5094358;28;19916;-71
2021/09/15 07:05:37;;;;;;;;;;;17.50;99.90;;;;;;5094582;28;20487;-71
2021/09/15 07:08:03;;;;;;;;;;;17.70;99.90;;;;;;5093784;28;19944;-71
2021/09/15 07:10:31;;;;;;;;;;;17.80;99.90;;;;;;5093680;28;19948;-71
2021/09/15 07:12:56;;;;;;;;;;;17.90;99.90;;;;;;5093497;28;19912;-71
2021/09/15 07:15:22;;;;;;;;;;;18.10;99.90;;;;;;5089490;28;20357;-71
2021/09/15 07:17:49;;;;;;;;;;;18.20;99.90;;;;;;5091018;28;19919;-71
2021/09/15 07:20:15;;;;;;;;;;;18.40;99.90;;;;;;5093293;28;19915;-71
2021/09/15 07:22:41;;;;;;;;;;;18.30;99.90;;;;;;5073740;28;20003;-71
2021/09/15 07:25:06;;;;;;;;;;;18.30;99.90;;;;;;5093418;28;19916;-71
2021/09/15 07:27:32;;;;;;;;;;;18.40;99.90;;;;;;5094283;28;19908;-69
2021/09/15 07:29:57;;;;;;;;;;;18.60;99.90;;;;;;5095096;28;20012;-71
2021/09/15 07:32:24;;;;;;;;;;;18.70;99.90;;;;;;5093419;28;20273;-69
2021/09/15 07:34:49;;;;;;;;;;;18.70;99.90;;;;;;5094055;28;19960;-71
2021/09/15 07:37:15;;;;;;;;;;;18.60;99.90;;;;;;5096706;28;20618;-71
2021/09/15 07:39:41;;;;;;;;;;;18.40;99.90;;;;;;5093168;28;19915;-69
2021/09/15 07:42:07;;;;;;;;;;;18.50;99.90;;;;;;5093650;28;19956;-69
2021/09/15 07:44:32;;;;;;;;;;;18.40;99.90;;;;;;5090717;28;19993;-71
2021/09/15 07:46:58;;;;;;;;;;;18.30;99.90;;;;;;5096894;28;20560;-70
2021/09/15 07:49:23;;;;;;;;;;;18.20;99.90;;;;;;5092751;28;19908;-71
2021/09/15 07:51:49;;;;;;;;;;;18.20;99.90;;;;;;5092175;28;20399;-69
2021/09/15 07:54:14;;;;;;;;;;;18.10;99.90;;;;;;5094534;28;19914;-71
2021/09/15 07:56:39;;;;;;;;;;;18.20;99.90;;;;;;5111349;28;19908;-71
2021/09/15 07:59:05;;;;;;;;;;;18.10;99.90;;;;;;5101894;28;20007;-71
2021/09/15 08:01:30;;;;;;;;;;;18.10;99.90;;;;;;5097386;28;20434;-71
2021/09/15 08:03:56;;;;;;;;;;;18.00;99.90;;;;;;5091496;28;20347;-71
2021/09/15 08:06:22;;;;;;;;;;;18.10;99.90;;;;;;5092281;28;19938;-71
2021/09/15 08:08:48;;;;;;;;;;;18.20;99.90;;;;;;5106744;28;20280;-71
2021/09/15 08:11:13;;;;;;;;;;;18.20;99.90;;;;;;5113485;28;19908;-70
2021/09/15 08:13:39;;;;;;;;;;;18.20;99.90;;;;;;5113277;28;19944;-70
2021/09/15 08:16:04;;;;;;;;;;;18.10;99.90;;;;;;5093237;28;20598;-71
2021/09/15 08:18:30;;;;;;;;;;;18.10;99.90;;;;;;5092646;28;19957;-71
2021/09/15 08:20:55;;;;;;;;;;;18.10;99.90;;;;;;5092546;28;19912;-70
2021/09/15 08:23:21;;;;;;;;;;;18.10;99.90;;;;;;5092759;28;19908;-71
2021/09/15 08:25:47;;;;;;;;;;;18.10;99.90;;;;;;5091128;28;19908;-71
2021/09/15 08:28:13;;;;;;;;;;;18.20;99.90;;;;;;5092065;28;19916;-71
2021/09/15 08:30:39;;;;;;;;;;;18.20;99.90;;;;;;5091349;28;19919;-71
2021/09/15 08:33:04;;;;;;;;;;;18.00;99.90;;;;;;5092769;28;20289;-71
2021/09/15 08:35:30;;;;;;;;;;;17.90;99.90;;;;;;5092782;28;20285;-71
2021/09/15 08:37:56;;;;;;;;;;;17.80;99.90;;;;;;5107999;28;20395;-71
2021/09/15 08:40:22;;;;;;;;;;;17.80;99.90;;;;;;5102748;28;19912;-69
2021/09/15 08:42:47;;;;;;;;;;;17.80;99.90;;;;;;5098777;28;19911;-71
2021/09/15 08:45:13;;;;;;;;;;;17.80;99.90;;;;;;5098408;28;20315;-71
2021/09/15 08:47:47;;;;;;;;;;;17.70;99.90;;;;;;5091725;28;19921;-71
2021/09/15 08:50:13;;;;;;;;;;;17.70;99.90;;;;;;5085394;28;19943;-71
2021/09/15 08:52:39;;;;;;;;;;;17.60;99.90;;;;;;5087172;28;20364;-71
2021/09/15 08:55:05;;;;;;;;;;;17.60;99.90;;;;;;5089560;28;19995;-71
2021/09/15 08:57:31;;;;;;;;;;;17.70;99.90;;;;;;5085487;28;20397;-71
2021/09/15 08:59:57;;;;;;;;;;;17.70;99.90;;;;;;5082606;28;19930;-70
2021/09/15 09:02:23;;;;;;;;;;;17.70;99.90;;;;;;5091100;28;20361;-71
2021/09/15 09:04:56;;;;;;;;;;;17.70;99.90;;;;;;5087325;28;19908;-70
2021/09/15 09:07:22;;;;;;;;;;;17.70;99.90;;;;;;5070295;28;19915;-70
2021/09/15 09:09:48;;;;;;;;;;;17.50;99.90;;;;;;5070774;28;19995;-71
2021/09/15 09:12:15;;;;;;;;;;;17.40;99.90;;;;;;5070622;28;19932;-70
2021/09/15 09:14:40;;;;;;;;;;;17.30;99.90;;;;;;5072695;28;20485;-71
2021/09/15 09:17:06;;;;;;;;;;;17.30;99.90;;;;;;5102794;28;19955;-71
2021/09/15 09:19:31;;;;;;;;;;;17.40;99.90;;;;;;5079975;28;19913;-70
2021/09/15 09:21:59;;;;;;;;;;;17.40;99.90;;;;;;5068363;28;19961;-71
2021/09/15 09:24:26;;;;;;;;;;;17.40;99.90;;;;;;5086255;28;19908;-71
2021/09/15 09:26:56;;;;;;;;;;;17.50;99.90;;;;;;5089366;28;19912;-70
2021/09/15 09:29:22;;;;;;;;;;;17.60;99.90;;;;;;5077077;28;19927;-72
2021/09/15 09:32:01;;;;;;;;;;;17.60;99.90;;;;;;5075603;28;20002;-70
2021/09/15 09:34:28;;;;;;;;;;;17.60;99.90;;;;;;5069773;28;19913;-71
2021/09/15 09:37:04;;;;;;;;;;;17.60;99.90;;;;;;5085311;28;19908;-69
2021/09/15 09:39:37;;;;;;;;;;;17.90;99.90;;;;;;5088205;28;19950;-69
2021/09/15 09:42:03;;;;;;;;;;;18.30;99.90;;;;;;5085001;28;19908;-70
2021/09/15 09:44:28;;;;;;;;;;;18.60;99.90;;;;;;5088059;28;19960;-71
2021/09/15 09:46:54;;;;;;;;;;;19.20;99.90;;;;;;5092311;28;19989;-70
2021/09/15 09:49:19;;;;;;;;;;;19.50;99.90;;;;;;5109503;28;19972;-71
2021/09/15 09:51:45;;;;;;;;;;;19.80;99.90;;;;;;5106016;28;20422;-72
2021/09/15 09:54:13;;;;;;;;;;;19.70;99.90;;;;;;5107648;28;19908;-71
2021/09/15 09:56:41;;;;;;;;;;;19.70;99.90;;;;;;5099398;28;19986;-71
2021/09/15 09:59:07;;;;;;;;;;;19.90;99.90;;;;;;5088656;28;19912;-71
2021/09/15 10:01:36;;;;;;;;;;;20.10;99.90;;;;;;5090015;28;19920;-71
2021/09/15 10:04:03;;;;;;;;;;;20.20;99.90;;;;;;5089646;28;20004;-71
2021/09/15 10:06:28;;;;;;;;;;;20.20;99.90;;;;;;5090496;28;19999;-71
2021/09/15 10:08:54;;;;;;;;;;;20.40;99.90;;;;;;5089253;28;19991;-72
2021/09/15 10:11:20;;;;;;;;;;;20.90;99.90;;;;;;5090850;28;19908;-71
2021/09/15 10:13:46;;;;;;;;;;;21.40;99.90;;;;;;5089810;28;20394;-71
2021/09/15 10:16:12;;;;;;;;;;;21.40;99.90;;;;;;5087129;28;20074;-71
2021/09/15 10:18:38;;;;;;;;;;;21.40;99.90;;;;;;5093029;28;19955;-71
2021/09/15 10:21:04;;;;;;;;;;;21.30;99.90;;;;;;5085287;28;19951;-72
2021/09/15 10:23:40;;;;;;;;;;;20.90;99.90;;;;;;5076116;28;19914;-71
2021/09/15 10:26:25;;;;;;;;;;;20.40;99.90;;;;;;5099155;28;20311;-71
2021/09/15 10:29:10;;;;;;;;;;;20.20;99.90;;;;;;5090787;28;19915;-71
2021/09/15 10:31:48;;;;;;;;;;;20.10;99.90;;;;;;5075485;28;20383;-71
2021/09/15 10:34:33;;;;;;;;;;;20.10;99.90;;;;;;5090593;28;20292;-71
2021/09/15 10:36:59;;;;;;;;;;;19.80;99.90;;;;;;5092463;28;19912;-71
2021/09/15 10:39:26;;;;;;;;;;;19.70;99.90;;;;;;5093389;28;20316;-71
2021/09/15 10:41:52;;;;;;;;;;;19.70;99.90;;;;;;5089958;28;19954;-71
2021/09/15 10:44:17;;;;;;;;;;;20.00;99.90;;;;;;5087333;28;19974;-71
2021/09/15 10:46:44;;;;;;;;;;;20.10;99.90;;;;;;5087393;28;19916;-72
2021/09/15 10:49:15;;;;;;;;;;;20.30;99.90;;;;;;5092593;28;19908;-71
2021/09/15 10:51:41;;;;;;;;;;;20.50;99.90;;;;;;5100766;28;19939;-72
2021/09/15 10:54:25;;;;;;;;;;;20.60;99.90;;;;;;5089411;28;19924;-71
2021/09/15 10:57:10;;;;;;;;;;;20.60;99.90;;;;;;5094932;28;19908;-71
2021/09/15 10:59:54;;;;;;;;;;;20.50;99.90;;;;;;5093722;28;19948;-71
2021/09/15 11:02:23;;;;;;;;;;;20.40;99.90;;;;;;5101937;28;20368;-71
2021/09/15 11:04:49;;;;;;;;;;;20.50;99.90;;;;;;5096265;28;19935;-71
2021/09/15 11:07:33;;;;;;;;;;;20.50;99.90;;;;;;5090021;28;20364;-71
2021/09/15 11:09:59;;;;;;;;;;;20.40;99.90;;;;;;5092879;28;20279;-71
2021/09/15 11:12:44;;;;;;;;;;;20.40;99.90;;;;;;5111343;28;19908;-71
2021/09/15 11:15:26;;;;;;;;;;;20.50;99.90;;;;;;5099386;28;19977;-71
2021/09/15 11:17:52;;;;;;;;;;;20.40;99.90;;;;;;5089405;28;20416;-71
2021/09/15 11:20:21;;;;;;;;;;;20.10;99.90;;;;;;5086745;28;19916;-71
2021/09/15 11:22:47;;;;;;;;;;;19.90;99.90;;;;;;5094041;28;19908;-71
2021/09/15 11:25:30;;;;;;;;;;;20.00;99.90;;;;;;5093734;28;20379;-71
2021/09/15 11:28:08;;;;;;;;;;;20.20;99.90;;;;;;5093662;28;19916;-72
2021/09/15 11:30:37;;;;;;;;;;;20.20;99.90;;;;;;5093900;28;19934;-71
2021/09/15 11:33:03;;;;;;;;;;;20.30;99.90;;;;;;5093889;28;19915;-71
2021/09/15 11:35:31;;;;;;;;;;;20.00;99.90;;;;;;5092788;28;20067;-71
2021/09/15 11:37:57;;;;;;;;;;;19.80;99.90;;;;;;5091118;28;19955;-71
2021/09/15 11:40:27;;;;;;;;;;;19.70;99.90;;;;;;5109771;28;19955;-71
2021/09/15 11:42:53;;;;;;;;;;;19.70;99.90;;;;;;5102390;28;19908;-71
2021/09/15 11:45:19;;;;;;;;;;;19.70;99.90;;;;;;5096374;28;19908;-71
2021/09/15 11:47:46;;;;;;;;;;;20.00;99.90;;;;;;5092467;28;19922;-71
2021/09/15 11:50:41;;;;;;;;;;;20.20;99.90;;;;;;5094081;28;19916;-71
2021/09/15 11:53:09;;;;;;;;;;;20.20;99.90;;;;;;5068157;28;19923;-71
2021/09/15 11:55:42;;;;;;;;;;;20.30;99.90;;;;;;5093994;28;19912;-71
2021/09/15 11:58:08;;;;;;;;;;;20.30;99.90;;;;;;5094162;28;19912;-71
2021/09/15 12:00:34;;;;;;;;;;;20.10;99.90;;;;;;5093490;28;20258;-71
2021/09/15 12:03:02;;;;;;;;;;;20.20;99.90;;;;;;5098677;28;19912;-71
2021/09/15 12:05:27;;;;;;;;;;;20.30;99.90;;;;;;5098058;28;19916;-71
2021/09/15 12:07:53;;;;;;;;;;;20.40;99.90;;;;;;5098327;28;19999;-71
2021/09/15 12:10:19;;;;;;;;;;;20.20;99.90;;;;;;5092539;28;19912;-71
2021/09/15 12:12:45;;;;;;;;;;;20.10;99.90;;;;;;5093039;28;19908;-71
2021/09/15 12:15:11;;;;;;;;;;;20.10;99.90;;;;;;5092700;28;20523;-71
2021/09/15 12:17:37;;;;;;;;;;;20.10;99.90;;;;;;5088375;28;20372;-71
2021/09/15 12:20:04;;;;;;;;;;;20.20;99.90;;;;;;5091400;28;19952;-71
2021/09/15 12:22:31;;;;;;;;;;;20.10;99.90;;;;;;5093217;28;19988;-72
2021/09/15 12:25:06;;;;;;;;;;;20.50;99.90;;;;;;5093035;28;19912;-71
2021/09/15 12:27:31;;;;;;;;;;;20.80;99.90;;;;;;5083984;28;19908;-72
2021/09/15 12:30:07;;;;;;;;;;;21.30;99.90;;;;;;5090205;28;19908;-72
2021/09/15 12:32:35;;;;;;;;;;;21.40;99.90;;;;;;5091924;28;19912;-72
2021/09/15 12:35:00;;;;;;;;;;;21.60;99.90;;;;;;5086039;28;20324;-71
2021/09/15 12:37:26;;;;;;;;;;;22.10;99.90;;;;;;5063530;28;19920;-72
2021/09/15 12:39:55;;;;;;;;;;;22.50;99.90;;;;;;5087748;28;20013;-71
2021/09/15 12:42:22;;;;;;;;;;;22.90;99.90;;;;;;5088013;28;19908;-71
2021/09/15 12:44:59;;;;;;;;;;;23.00;99.90;;;;;;5092208;28;19908;-71
2021/09/15 12:47:32;;;;;;;;;;;22.70;99.90;;;;;;5104719;28;20432;-72
2021/09/15 12:50:03;;;;;;;;;;;22.90;99.90;;;;;;5112778;28;19960;-72
2021/09/15 12:52:29;;;;;;;;;;;22.40;99.90;;;;;;5104055;28;19908;-72
2021/09/15 12:54:56;;;;;;;;;;;22.20;99.90;;;;;;5096517;28;19953;-71
2021/09/15 12:57:25;;;;;;;;;;;21.90;99.90;;;;;;5087967;28;19919;-72
2021/09/15 12:59:51;;;;;;;;;;;22.10;99.90;;;;;;5093519;28;19995;-72
2021/09/15 13:02:35;;;;;;;;;;;22.40;99.90;;;;;;5082336;28;19998;-71
2021/09/15 13:05:00;;;;;;;;;;;22.80;99.90;;;;;;5100911;28;20008;-72
2021/09/15 13:07:26;;;;;;;;;;;23.00;99.90;;;;;;5098742;28;20449;-72
2021/09/15 13:09:52;;;;;;;;;;;23.20;99.90;;;;;;5085701;28;19908;-71
2021/09/15 13:12:18;;;;;;;;;;;23.30;99.90;;;;;;5097048;28;20353;-72
2021/09/15 13:14:45;;;;;;;;;;;23.20;99.90;;;;;;5087865;28;19930;-71
2021/09/15 13:17:11;;;;;;;;;;;23.40;99.90;;;;;;5081864;28;20284;-71
2021/09/15 13:19:37;;;;;;;;;;;22.60;99.90;;;;;;5079675;28;19917;-72
2021/09/15 13:22:03;;;;;;;;;;;22.10;99.90;;;;;;5076220;28;19943;-72
2021/09/15 13:24:28;;;;;;;;;;;21.70;99.90;;;;;;5086403;28;19947;-71
2021/09/15 13:26:54;;;;;;;;;;;21.50;99.90;;;;;;5112012;28;19934;-71
2021/09/15 13:29:19;;;;;;;;;;;21.40;99.90;;;;;;5082987;28;19920;-72
2021/09/15 13:31:45;;;;;;;;;;;21.40;99.90;;;;;;5087482;28;19966;-71
2021/09/15 13:34:11;;;;;;;;;;;21.40;99.90;;;;;;5082317;28;19908;-71
2021/09/15 13:36:37;;;;;;;;;;;21.50;99.90;;;;;;5082638;28;19920;-72
2021/09/15 13:39:03;;;;;;;;;;;21.60;99.90;;;;;;5089294;28;19928;-71
2021/09/15 13:41:28;;;;;;;;;;;21.80;99.90;;;;;;5074709;28;19961;-71
2021/09/15 13:43:54;;;;;;;;;;;22.10;99.90;;;;;;5079094;28;19909;-72
2021/09/15 13:46:19;;;;;;;;;;;22.40;99.90;;;;;;5100108;28;20314;-73
2021/09/15 13:48:44;;;;;;;;;;;22.00;99.90;;;;;;5091796;28;19908;-71
2021/09/15 13:51:10;;;;;;;;;;;21.80;99.90;;;;;;5095330;28;19908;-72
2021/09/15 13:53:35;;;;;;;;;;;22.00;99.90;;;;;;5111547;28;19918;-72
2021/09/15 13:56:01;;;;;;;;;;;21.90;99.90;;;;;;5111162;28;20010;-72
2021/09/15 13:58:27;;;;;;;;;;;21.40;99.90;;;;;;5111590;28;19912;-71
2021/09/15 14:00:52;;;;;;;;;;;21.30;99.90;;;;;;5103992;28;19998;-71
2021/09/15 14:03:18;;;;;;;;;;;21.20;99.90;;;;;;5090221;28;19909;-71
2021/09/15 14:05:43;;;;;;;;;;;21.30;99.90;;;;;;5090483;28;19927;-71
2021/09/15 14:08:10;;;;;;;;;;;21.40;99.90;;;;;;5090820;28;19999;-72
2021/09/15 14:10:36;;;;;;;;;;;21.30;99.90;;;;;;5091156;28;19913;-72
2021/09/15 14:13:02;;;;;;;;;;;21.50;99.90;;;;;;5091100;28;20377;-71
2021/09/15 14:15:28;;;;;;;;;;;21.50;99.90;;;;;;5091144;28;19908;-71
2021/09/15 14:17:53;;;;;;;;;;;21.40;99.90;;;;;;5088953;28;19919;-71
2021/09/15 14:20:20;;;;;;;;;;;21.40;99.90;;;;;;5089377;28;19943;-71
2021/09/15 14:22:46;;;;;;;;;;;21.20;99.90;;;;;;5104406;28;19913;-71